sensor_id;sensor_type;location;lat;lon;timestamp;P1;durP1;ratioP1;P2;durP2;ratioP2
72611;SDS011;60655;52.182;4.474;2023-07-24T00:01:06;9.93;;;3.20;;
72611;SDS011;60655;52.182;4.474;2023-07-24T00:03:07;12.10;;;3.20;;
72611;SDS011;60655;52.182;4.474;2023-07-24T00:05:07;10.02;;;3.00;;
72611;SDS011;60655;52.182;4.474;2023-07-24T00:07:09;10.98;;;2.88;;
72611;SDS011;60655;52.182;4.474;2023-07-24T00:09:10;9.90;;;3.30;;
72611;SDS011;60655;52.182;4.474;2023-07-24T00:11:11;7.95;;;2.67;;
72611;SDS011;60655;52.182;4.474;2023-07-24T00:13:12;12.60;;;3.67;;
72611;SDS011;60655;52.182;4.474;2023-07-24T00:15:13;9.18;;;2.92;;
72611;SDS011;60655;52.182;4.474;2023-07-24T00:17:14;8.93;;;2.83;;
72611;SDS011;60655;52.182;4.474;2023-07-24T00:19:14;10.07;;;3.13;;
72611;SDS011;60655;52.182;4.474;2023-07-24T00:21:15;9.75;;;3.03;;
72611;SDS011;60655;52.182;4.474;2023-07-24T00:23:16;7.70;;;3.45;;
72611;SDS011;60655;52.182;4.474;2023-07-24T00:25:17;10.40;;;3.08;;
72611;SDS011;60655;52.182;4.474;2023-07-24T00:27:18;10.55;;;2.92;;
72611;SDS011;60655;52.182;4.474;2023-07-24T00:29:19;8.35;;;3.42;;
72611;SDS011;60655;52.182;4.474;2023-07-24T00:31:20;10.55;;;3.22;;
72611;SDS011;60655;52.182;4.474;2023-07-24T00:33:21;11.63;;;3.22;;
72611;SDS011;60655;52.182;4.474;2023-07-24T00:35:22;9.75;;;3.17;;
72611;SDS011;60655;52.182;4.474;2023-07-24T00:37:24;10.13;;;3.15;;
72611;SDS011;60655;52.182;4.474;2023-07-24T00:39:25;8.98;;;3.40;;
72611;SDS011;60655;52.182;4.474;2023-07-24T00:41:28;9.18;;;3.60;;
72611;SDS011;60655;52.182;4.474;2023-07-24T00:43:29;8.90;;;3.08;;
72611;SDS011;60655;52.182;4.474;2023-07-24T00:45:30;9.63;;;3.05;;
72611;SDS011;60655;52.182;4.474;2023-07-24T00:47:31;8.52;;;3.13;;
72611;SDS011;60655;52.182;4.474;2023-07-24T00:49:33;11.07;;;3.50;;
72611;SDS011;60655;52.182;4.474;2023-07-24T00:51:34;9.38;;;3.63;;
72611;SDS011;60655;52.182;4.474;2023-07-24T00:53:36;9.65;;;4.28;;
72611;SDS011;60655;52.182;4.474;2023-07-24T00:55:37;10.32;;;4.07;;
72611;SDS011;60655;52.182;4.474;2023-07-24T00:57:39;9.07;;;4.10;;
72611;SDS011;60655;52.182;4.474;2023-07-24T00:59:41;11.30;;;3.90;;
72611;SDS011;60655;52.182;4.474;2023-07-24T01:01:42;9.73;;;3.85;;
72611;SDS011;60655;52.182;4.474;2023-07-24T01:03:44;9.95;;;4.18;;
72611;SDS011;60655;52.182;4.474;2023-07-24T01:05:46;11.55;;;4.00;;
72611;SDS011;60655;52.182;4.474;2023-07-24T01:07:47;11.93;;;4.25;;
72611;SDS011;60655;52.182;4.474;2023-07-24T01:09:48;8.15;;;3.80;;
72611;SDS011;60655;52.182;4.474;2023-07-24T01:11:56;10.75;;;3.88;;
72611;SDS011;60655;52.182;4.474;2023-07-24T01:14:24;11.50;;;4.55;;
72611;SDS011;60655;52.182;4.474;2023-07-24T01:16:26;14.27;;;4.40;;
72611;SDS011;60655;52.182;4.474;2023-07-24T01:18:35;14.50;;;3.90;;
72611;SDS011;60655;52.182;4.474;2023-07-24T01:20:49;11.63;;;4.00;;
72611;SDS011;60655;52.182;4.474;2023-07-24T01:23:13;9.73;;;3.53;;
72611;SDS011;60655;52.182;4.474;2023-07-24T01:25:33;12.45;;;4.25;;
72611;SDS011;60655;52.182;4.474;2023-07-24T01:27:42;10.77;;;4.25;;
72611;SDS011;60655;52.182;4.474;2023-07-24T01:29:44;11.40;;;4.47;;
72611;SDS011;60655;52.182;4.474;2023-07-24T01:31:45;13.20;;;4.05;;
72611;SDS011;60655;52.182;4.474;2023-07-24T01:33:46;11.52;;;4.60;;
72611;SDS011;60655;52.182;4.474;2023-07-24T01:36:21;9.88;;;3.97;;
72611;SDS011;60655;52.182;4.474;2023-07-24T01:38:15;9.63;;;3.83;;
72611;SDS011;60655;52.182;4.474;2023-07-24T01:40:16;11.18;;;4.20;;
72611;SDS011;60655;52.182;4.474;2023-07-24T01:42:19;12.00;;;4.28;;
72611;SDS011;60655;52.182;4.474;2023-07-24T01:44:20;9.35;;;3.72;;
72611;SDS011;60655;52.182;4.474;2023-07-24T01:46:21;9.02;;;3.70;;
72611;SDS011;60655;52.182;4.474;2023-07-24T01:48:22;11.25;;;3.60;;
72611;SDS011;60655;52.182;4.474;2023-07-24T01:50:23;10.20;;;3.63;;
72611;SDS011;60655;52.182;4.474;2023-07-24T01:52:24;11.20;;;3.58;;
72611;SDS011;60655;52.182;4.474;2023-07-24T01:54:25;10.20;;;3.70;;
72611;SDS011;60655;52.182;4.474;2023-07-24T01:56:25;10.95;;;3.30;;
72611;SDS011;60655;52.182;4.474;2023-07-24T01:58:26;10.60;;;3.47;;
72611;SDS011;60655;52.182;4.474;2023-07-24T02:00:29;11.55;;;3.60;;
72611;SDS011;60655;52.182;4.474;2023-07-24T02:02:30;12.05;;;3.53;;
72611;SDS011;60655;52.182;4.474;2023-07-24T02:04:31;7.97;;;3.45;;
72611;SDS011;60655;52.182;4.474;2023-07-24T02:06:32;10.15;;;3.42;;
72611;SDS011;60655;52.182;4.474;2023-07-24T02:08:32;11.93;;;3.63;;
72611;SDS011;60655;52.182;4.474;2023-07-24T02:10:36;10.75;;;3.65;;
72611;SDS011;60655;52.182;4.474;2023-07-24T02:12:38;8.65;;;2.97;;
72611;SDS011;60655;52.182;4.474;2023-07-24T02:14:39;9.10;;;3.50;;
72611;SDS011;60655;52.182;4.474;2023-07-24T02:16:40;11.75;;;3.80;;
72611;SDS011;60655;52.182;4.474;2023-07-24T02:18:41;13.23;;;3.53;;
72611;SDS011;60655;52.182;4.474;2023-07-24T02:20:48;10.02;;;3.70;;
72611;SDS011;60655;52.182;4.474;2023-07-24T02:22:50;13.93;;;3.88;;
72611;SDS011;60655;52.182;4.474;2023-07-24T02:24:51;9.85;;;3.20;;
72611;SDS011;60655;52.182;4.474;2023-07-24T02:26:52;9.60;;;3.35;;
72611;SDS011;60655;52.182;4.474;2023-07-24T02:28:53;9.30;;;3.25;;
72611;SDS011;60655;52.182;4.474;2023-07-24T02:30:54;9.55;;;3.67;;
72611;SDS011;60655;52.182;4.474;2023-07-24T02:32:59;11.65;;;3.40;;
72611;SDS011;60655;52.182;4.474;2023-07-24T02:35:00;10.05;;;3.17;;
72611;SDS011;60655;52.182;4.474;2023-07-24T02:37:01;11.32;;;3.30;;
72611;SDS011;60655;52.182;4.474;2023-07-24T02:39:02;10.55;;;3.15;;
72611;SDS011;60655;52.182;4.474;2023-07-24T02:41:03;12.63;;;3.30;;
72611;SDS011;60655;52.182;4.474;2023-07-24T02:43:04;10.27;;;3.60;;
72611;SDS011;60655;52.182;4.474;2023-07-24T02:45:06;10.80;;;3.50;;
72611;SDS011;60655;52.182;4.474;2023-07-24T02:47:11;9.70;;;3.10;;
72611;SDS011;60655;52.182;4.474;2023-07-24T02:49:12;14.80;;;3.95;;
72611;SDS011;60655;52.182;4.474;2023-07-24T02:51:13;9.73;;;3.50;;
72611;SDS011;60655;52.182;4.474;2023-07-24T02:53:14;9.15;;;3.65;;
72611;SDS011;60655;52.182;4.474;2023-07-24T02:55:16;10.57;;;3.45;;
72611;SDS011;60655;52.182;4.474;2023-07-24T02:57:17;14.02;;;3.38;;
72611;SDS011;60655;52.182;4.474;2023-07-24T02:59:17;11.90;;;3.38;;
72611;SDS011;60655;52.182;4.474;2023-07-24T03:01:18;12.60;;;3.35;;
72611;SDS011;60655;52.182;4.474;2023-07-24T03:03:19;15.70;;;3.72;;
72611;SDS011;60655;52.182;4.474;2023-07-24T03:05:20;13.05;;;4.35;;
72611;SDS011;60655;52.182;4.474;2023-07-24T03:07:21;13.00;;;3.38;;
72611;SDS011;60655;52.182;4.474;2023-07-24T03:09:22;12.63;;;3.25;;
72611;SDS011;60655;52.182;4.474;2023-07-24T03:11:23;13.57;;;3.92;;
72611;SDS011;60655;52.182;4.474;2023-07-24T03:13:24;11.63;;;3.72;;
72611;SDS011;60655;52.182;4.474;2023-07-24T03:15:25;12.30;;;4.03;;
72611;SDS011;60655;52.182;4.474;2023-07-24T03:17:26;12.90;;;3.88;;
72611;SDS011;60655;52.182;4.474;2023-07-24T03:19:27;11.90;;;4.03;;
72611;SDS011;60655;52.182;4.474;2023-07-24T03:21:28;12.60;;;3.70;;
72611;SDS011;60655;52.182;4.474;2023-07-24T03:23:29;14.60;;;3.97;;
72611;SDS011;60655;52.182;4.474;2023-07-24T03:25:30;14.07;;;3.30;;
72611;SDS011;60655;52.182;4.474;2023-07-24T03:27:32;12.82;;;3.67;;
72611;SDS011;60655;52.182;4.474;2023-07-24T03:29:33;11.75;;;3.63;;
72611;SDS011;60655;52.182;4.474;2023-07-24T03:31:34;10.00;;;3.28;;
72611;SDS011;60655;52.182;4.474;2023-07-24T03:33:35;13.02;;;3.33;;
72611;SDS011;60655;52.182;4.474;2023-07-24T03:35:36;11.35;;;3.22;;
72611;SDS011;60655;52.182;4.474;2023-07-24T03:37:37;13.68;;;3.25;;
72611;SDS011;60655;52.182;4.474;2023-07-24T03:39:38;11.27;;;3.35;;
72611;SDS011;60655;52.182;4.474;2023-07-24T03:41:39;9.15;;;3.42;;
72611;SDS011;60655;52.182;4.474;2023-07-24T03:43:40;12.13;;;3.10;;
72611;SDS011;60655;52.182;4.474;2023-07-24T03:45:41;11.07;;;4.07;;
72611;SDS011;60655;52.182;4.474;2023-07-24T03:47:42;12.65;;;4.13;;
72611;SDS011;60655;52.182;4.474;2023-07-24T03:49:43;11.15;;;3.63;;
72611;SDS011;60655;52.182;4.474;2023-07-24T03:51:44;12.07;;;3.28;;
72611;SDS011;60655;52.182;4.474;2023-07-24T03:53:45;13.02;;;4.28;;
72611;SDS011;60655;52.182;4.474;2023-07-24T03:55:47;13.13;;;3.67;;
72611;SDS011;60655;52.182;4.474;2023-07-24T03:57:47;13.73;;;3.80;;
72611;SDS011;60655;52.182;4.474;2023-07-24T03:59:48;9.38;;;3.47;;
72611;SDS011;60655;52.182;4.474;2023-07-24T04:01:49;12.27;;;4.05;;
72611;SDS011;60655;52.182;4.474;2023-07-24T04:03:50;16.65;;;3.78;;
72611;SDS011;60655;52.182;4.474;2023-07-24T04:05:51;12.45;;;3.75;;
72611;SDS011;60655;52.182;4.474;2023-07-24T04:07:53;12.15;;;3.45;;
72611;SDS011;60655;52.182;4.474;2023-07-24T04:09:55;10.60;;;3.63;;
72611;SDS011;60655;52.182;4.474;2023-07-24T04:11:56;13.63;;;3.72;;
72611;SDS011;60655;52.182;4.474;2023-07-24T04:13:57;12.40;;;3.58;;
72611;SDS011;60655;52.182;4.474;2023-07-24T04:15:58;10.40;;;3.85;;
72611;SDS011;60655;52.182;4.474;2023-07-24T04:18:00;12.70;;;3.83;;
72611;SDS011;60655;52.182;4.474;2023-07-24T04:20:00;15.38;;;3.78;;
72611;SDS011;60655;52.182;4.474;2023-07-24T04:22:02;9.98;;;3.22;;
72611;SDS011;60655;52.182;4.474;2023-07-24T04:24:03;9.15;;;3.28;;
72611;SDS011;60655;52.182;4.474;2023-07-24T04:26:04;10.60;;;3.30;;
72611;SDS011;60655;52.182;4.474;2023-07-24T04:28:05;11.10;;;3.55;;
72611;SDS011;60655;52.182;4.474;2023-07-24T04:30:06;13.18;;;3.80;;
72611;SDS011;60655;52.182;4.474;2023-07-24T04:32:07;12.55;;;3.78;;
72611;SDS011;60655;52.182;4.474;2023-07-24T04:34:08;14.57;;;3.97;;
72611;SDS011;60655;52.182;4.474;2023-07-24T04:36:09;10.30;;;3.47;;
72611;SDS011;60655;52.182;4.474;2023-07-24T04:38:10;11.90;;;3.65;;
72611;SDS011;60655;52.182;4.474;2023-07-24T04:40:11;15.40;;;4.22;;
72611;SDS011;60655;52.182;4.474;2023-07-24T04:42:13;11.40;;;3.63;;
72611;SDS011;60655;52.182;4.474;2023-07-24T04:44:13;14.48;;;3.97;;
72611;SDS011;60655;52.182;4.474;2023-07-24T04:46:14;12.80;;;3.85;;
72611;SDS011;60655;52.182;4.474;2023-07-24T04:48:15;13.88;;;4.40;;
72611;SDS011;60655;52.182;4.474;2023-07-24T04:50:16;14.25;;;3.40;;
72611;SDS011;60655;52.182;4.474;2023-07-24T04:52:17;14.63;;;3.88;;
72611;SDS011;60655;52.182;4.474;2023-07-24T04:54:18;15.85;;;3.90;;
72611;SDS011;60655;52.182;4.474;2023-07-24T04:56:19;14.13;;;4.15;;
72611;SDS011;60655;52.182;4.474;2023-07-24T04:58:20;17.13;;;4.18;;
72611;SDS011;60655;52.182;4.474;2023-07-24T05:00:21;13.48;;;3.97;;
72611;SDS011;60655;52.182;4.474;2023-07-24T05:02:22;10.27;;;3.60;;
72611;SDS011;60655;52.182;4.474;2023-07-24T05:04:23;14.73;;;4.18;;
72611;SDS011;60655;52.182;4.474;2023-07-24T05:06:24;13.85;;;4.13;;
72611;SDS011;60655;52.182;4.474;2023-07-24T05:08:25;12.27;;;3.80;;
72611;SDS011;60655;52.182;4.474;2023-07-24T05:10:26;18.00;;;4.22;;
72611;SDS011;60655;52.182;4.474;2023-07-24T05:12:27;14.82;;;3.85;;
72611;SDS011;60655;52.182;4.474;2023-07-24T05:14:28;12.38;;;3.63;;
72611;SDS011;60655;52.182;4.474;2023-07-24T05:16:29;18.40;;;4.25;;
72611;SDS011;60655;52.182;4.474;2023-07-24T05:18:30;10.98;;;3.65;;
72611;SDS011;60655;52.182;4.474;2023-07-24T05:20:31;10.93;;;3.33;;
72611;SDS011;60655;52.182;4.474;2023-07-24T05:22:32;9.32;;;3.58;;
72611;SDS011;60655;52.182;4.474;2023-07-24T05:24:33;13.98;;;4.22;;
72611;SDS011;60655;52.182;4.474;2023-07-24T05:26:34;9.73;;;3.50;;
72611;SDS011;60655;52.182;4.474;2023-07-24T05:28:35;16.75;;;4.20;;
72611;SDS011;60655;52.182;4.474;2023-07-24T05:30:36;12.85;;;3.83;;
72611;SDS011;60655;52.182;4.474;2023-07-24T05:32:37;14.98;;;4.22;;
72611;SDS011;60655;52.182;4.474;2023-07-24T05:34:38;14.77;;;4.38;;
72611;SDS011;60655;52.182;4.474;2023-07-24T05:36:40;16.10;;;4.80;;
72611;SDS011;60655;52.182;4.474;2023-07-24T05:38:41;11.23;;;4.22;;
72611;SDS011;60655;52.182;4.474;2023-07-24T05:40:42;12.55;;;4.20;;
72611;SDS011;60655;52.182;4.474;2023-07-24T05:42:43;15.23;;;4.10;;
72611;SDS011;60655;52.182;4.474;2023-07-24T05:44:44;12.75;;;4.15;;
72611;SDS011;60655;52.182;4.474;2023-07-24T05:46:45;15.75;;;4.25;;
72611;SDS011;60655;52.182;4.474;2023-07-24T05:48:46;17.95;;;4.45;;
72611;SDS011;60655;52.182;4.474;2023-07-24T05:50:47;14.93;;;4.57;;
72611;SDS011;60655;52.182;4.474;2023-07-24T05:52:48;12.73;;;4.00;;
72611;SDS011;60655;52.182;4.474;2023-07-24T05:54:49;15.82;;;4.05;;
72611;SDS011;60655;52.182;4.474;2023-07-24T05:56:51;14.45;;;3.70;;
72611;SDS011;60655;52.182;4.474;2023-07-24T05:58:52;12.25;;;4.18;;
72611;SDS011;60655;52.182;4.474;2023-07-24T06:00:54;15.38;;;4.65;;
72611;SDS011;60655;52.182;4.474;2023-07-24T06:02:55;16.15;;;3.65;;
72611;SDS011;60655;52.182;4.474;2023-07-24T06:04:56;13.43;;;4.38;;
72611;SDS011;60655;52.182;4.474;2023-07-24T06:06:57;13.80;;;4.60;;
72611;SDS011;60655;52.182;4.474;2023-07-24T06:08:58;14.32;;;4.53;;
72611;SDS011;60655;52.182;4.474;2023-07-24T06:10:59;14.80;;;4.20;;
72611;SDS011;60655;52.182;4.474;2023-07-24T06:13:00;14.32;;;4.90;;
72611;SDS011;60655;52.182;4.474;2023-07-24T06:15:01;13.77;;;4.38;;
72611;SDS011;60655;52.182;4.474;2023-07-24T06:17:02;10.57;;;4.22;;
72611;SDS011;60655;52.182;4.474;2023-07-24T06:19:03;15.25;;;4.55;;
72611;SDS011;60655;52.182;4.474;2023-07-24T06:21:04;11.20;;;4.25;;
72611;SDS011;60655;52.182;4.474;2023-07-24T06:23:05;11.77;;;4.25;;
72611;SDS011;60655;52.182;4.474;2023-07-24T06:25:08;14.60;;;4.18;;
72611;SDS011;60655;52.182;4.474;2023-07-24T06:27:09;16.60;;;4.50;;
72611;SDS011;60655;52.182;4.474;2023-07-24T06:29:10;19.48;;;5.20;;
72611;SDS011;60655;52.182;4.474;2023-07-24T06:31:11;14.07;;;4.78;;
72611;SDS011;60655;52.182;4.474;2023-07-24T06:33:12;14.52;;;4.93;;
72611;SDS011;60655;52.182;4.474;2023-07-24T06:35:13;15.88;;;4.78;;
72611;SDS011;60655;52.182;4.474;2023-07-24T06:37:14;13.82;;;4.45;;
72611;SDS011;60655;52.182;4.474;2023-07-24T06:39:15;13.48;;;5.07;;
72611;SDS011;60655;52.182;4.474;2023-07-24T06:41:16;12.70;;;4.25;;
72611;SDS011;60655;52.182;4.474;2023-07-24T06:43:17;16.63;;;5.03;;
72611;SDS011;60655;52.182;4.474;2023-07-24T06:45:18;12.70;;;4.15;;
72611;SDS011;60655;52.182;4.474;2023-07-24T06:47:19;14.93;;;4.53;;
72611;SDS011;60655;52.182;4.474;2023-07-24T06:49:20;16.67;;;4.57;;
72611;SDS011;60655;52.182;4.474;2023-07-24T06:51:21;13.82;;;4.90;;
72611;SDS011;60655;52.182;4.474;2023-07-24T06:53:22;12.48;;;3.80;;
72611;SDS011;60655;52.182;4.474;2023-07-24T06:55:23;10.95;;;4.40;;
72611;SDS011;60655;52.182;4.474;2023-07-24T06:57:24;14.23;;;4.63;;
72611;SDS011;60655;52.182;4.474;2023-07-24T06:59:25;18.73;;;4.65;;
72611;SDS011;60655;52.182;4.474;2023-07-24T07:01:26;15.45;;;4.90;;
72611;SDS011;60655;52.182;4.474;2023-07-24T07:03:27;15.13;;;4.55;;
72611;SDS011;60655;52.182;4.474;2023-07-24T07:05:28;11.75;;;4.75;;
72611;SDS011;60655;52.182;4.474;2023-07-24T07:07:29;11.30;;;4.90;;
72611;SDS011;60655;52.182;4.474;2023-07-24T07:09:30;12.45;;;4.97;;
72611;SDS011;60655;52.182;4.474;2023-07-24T07:11:31;11.15;;;4.50;;
72611;SDS011;60655;52.182;4.474;2023-07-24T07:13:32;10.23;;;4.53;;
72611;SDS011;60655;52.182;4.474;2023-07-24T07:15:33;11.15;;;4.03;;
72611;SDS011;60655;52.182;4.474;2023-07-24T07:17:36;8.55;;;4.15;;
72611;SDS011;60655;52.182;4.474;2023-07-24T07:19:37;15.60;;;4.60;;
72611;SDS011;60655;52.182;4.474;2023-07-24T07:21:38;13.98;;;4.45;;
72611;SDS011;60655;52.182;4.474;2023-07-24T07:23:39;13.15;;;4.35;;
72611;SDS011;60655;52.182;4.474;2023-07-24T07:25:40;11.48;;;4.75;;
72611;SDS011;60655;52.182;4.474;2023-07-24T07:27:41;9.73;;;4.25;;
72611;SDS011;60655;52.182;4.474;2023-07-24T07:29:42;8.90;;;4.43;;
72611;SDS011;60655;52.182;4.474;2023-07-24T07:31:44;11.93;;;4.47;;
72611;SDS011;60655;52.182;4.474;2023-07-24T07:33:45;12.13;;;4.30;;
72611;SDS011;60655;52.182;4.474;2023-07-24T07:35:46;12.55;;;4.05;;
72611;SDS011;60655;52.182;4.474;2023-07-24T07:37:47;12.93;;;4.53;;
72611;SDS011;60655;52.182;4.474;2023-07-24T07:39:48;12.48;;;4.80;;
72611;SDS011;60655;52.182;4.474;2023-07-24T07:41:49;11.73;;;4.35;;
72611;SDS011;60655;52.182;4.474;2023-07-24T07:43:49;16.98;;;3.97;;
72611;SDS011;60655;52.182;4.474;2023-07-24T07:45:50;9.70;;;4.20;;
72611;SDS011;60655;52.182;4.474;2023-07-24T07:47:51;8.63;;;3.92;;
72611;SDS011;60655;52.182;4.474;2023-07-24T07:49:53;12.50;;;4.30;;
72611;SDS011;60655;52.182;4.474;2023-07-24T07:51:54;11.82;;;4.20;;
72611;SDS011;60655;52.182;4.474;2023-07-24T07:53:55;13.50;;;4.13;;
72611;SDS011;60655;52.182;4.474;2023-07-24T07:55:56;7.72;;;3.85;;
72611;SDS011;60655;52.182;4.474;2023-07-24T07:57:58;10.48;;;4.10;;
72611;SDS011;60655;52.182;4.474;2023-07-24T07:59:59;8.63;;;3.72;;
72611;SDS011;60655;52.182;4.474;2023-07-24T08:02:00;12.75;;;4.13;;
72611;SDS011;60655;52.182;4.474;2023-07-24T08:04:01;12.27;;;4.25;;
72611;SDS011;60655;52.182;4.474;2023-07-24T08:06:02;10.07;;;4.32;;
72611;SDS011;60655;52.182;4.474;2023-07-24T08:08:04;12.02;;;4.65;;
72611;SDS011;60655;52.182;4.474;2023-07-24T08:10:05;8.13;;;3.45;;
72611;SDS011;60655;52.182;4.474;2023-07-24T08:12:07;9.40;;;4.15;;
72611;SDS011;60655;52.182;4.474;2023-07-24T08:14:08;10.88;;;4.10;;
72611;SDS011;60655;52.182;4.474;2023-07-24T08:16:13;10.63;;;3.72;;
72611;SDS011;60655;52.182;4.474;2023-07-24T08:18:18;10.85;;;4.07;;
72611;SDS011;60655;52.182;4.474;2023-07-24T08:20:19;12.50;;;4.55;;
72611;SDS011;60655;52.182;4.474;2023-07-24T08:22:20;9.73;;;4.47;;
72611;SDS011;60655;52.182;4.474;2023-07-24T08:24:23;12.38;;;4.85;;
72611;SDS011;60655;52.182;4.474;2023-07-24T08:26:24;9.57;;;4.28;;
72611;SDS011;60655;52.182;4.474;2023-07-24T08:28:26;11.20;;;4.47;;
72611;SDS011;60655;52.182;4.474;2023-07-24T08:30:27;12.55;;;4.22;;
72611;SDS011;60655;52.182;4.474;2023-07-24T08:32:29;11.60;;;4.07;;
72611;SDS011;60655;52.182;4.474;2023-07-24T08:34:30;9.25;;;3.90;;
72611;SDS011;60655;52.182;4.474;2023-07-24T08:36:31;9.30;;;3.85;;
72611;SDS011;60655;52.182;4.474;2023-07-24T08:38:35;11.40;;;3.30;;
72611;SDS011;60655;52.182;4.474;2023-07-24T08:40:36;8.85;;;3.90;;
72611;SDS011;60655;52.182;4.474;2023-07-24T08:42:38;7.90;;;3.50;;
72611;SDS011;60655;52.182;4.474;2023-07-24T08:44:41;7.63;;;3.33;;
72611;SDS011;60655;52.182;4.474;2023-07-24T08:46:42;8.07;;;3.15;;
72611;SDS011;60655;52.182;4.474;2023-07-24T08:48:46;8.40;;;3.38;;
72611;SDS011;60655;52.182;4.474;2023-07-24T08:50:47;8.55;;;3.75;;
72611;SDS011;60655;52.182;4.474;2023-07-24T08:52:50;9.80;;;3.65;;
72611;SDS011;60655;52.182;4.474;2023-07-24T08:54:51;8.18;;;3.33;;
72611;SDS011;60655;52.182;4.474;2023-07-24T08:56:55;10.93;;;3.58;;
72611;SDS011;60655;52.182;4.474;2023-07-24T08:58:56;10.27;;;3.47;;
72611;SDS011;60655;52.182;4.474;2023-07-24T09:00:59;13.60;;;4.18;;
72611;SDS011;60655;52.182;4.474;2023-07-24T09:03:01;9.48;;;3.80;;
72611;SDS011;60655;52.182;4.474;2023-07-24T09:05:02;9.20;;;4.00;;
72611;SDS011;60655;52.182;4.474;2023-07-24T09:07:04;11.38;;;3.85;;
72611;SDS011;60655;52.182;4.474;2023-07-24T09:09:14;8.18;;;3.70;;
72611;SDS011;60655;52.182;4.474;2023-07-24T09:11:16;11.48;;;4.30;;
72611;SDS011;60655;52.182;4.474;2023-07-24T09:13:17;9.20;;;4.10;;
72611;SDS011;60655;52.182;4.474;2023-07-24T09:15:18;12.00;;;3.33;;
72611;SDS011;60655;52.182;4.474;2023-07-24T09:17:19;7.40;;;3.63;;
72611;SDS011;60655;52.182;4.474;2023-07-24T09:19:20;8.77;;;4.32;;
72611;SDS011;60655;52.182;4.474;2023-07-24T09:21:30;8.10;;;3.50;;
72611;SDS011;60655;52.182;4.474;2023-07-24T09:23:32;11.13;;;3.42;;
72611;SDS011;60655;52.182;4.474;2023-07-24T09:25:34;8.35;;;3.65;;
72611;SDS011;60655;52.182;4.474;2023-07-24T09:27:36;9.57;;;3.13;;
72611;SDS011;60655;52.182;4.474;2023-07-24T09:29:37;9.73;;;3.75;;
72611;SDS011;60655;52.182;4.474;2023-07-24T09:31:38;8.13;;;3.67;;
72611;SDS011;60655;52.182;4.474;2023-07-24T09:33:40;11.25;;;4.13;;
72611;SDS011;60655;52.182;4.474;2023-07-24T09:35:41;9.32;;;3.20;;
72611;SDS011;60655;52.182;4.474;2023-07-24T09:37:42;10.07;;;3.35;;
72611;SDS011;60655;52.182;4.474;2023-07-24T09:39:45;7.88;;;3.53;;
72611;SDS011;60655;52.182;4.474;2023-07-24T09:41:47;10.68;;;3.92;;
72611;SDS011;60655;52.182;4.474;2023-07-24T09:43:57;9.82;;;3.90;;
72611;SDS011;60655;52.182;4.474;2023-07-24T09:45:59;8.68;;;3.72;;
72611;SDS011;60655;52.182;4.474;2023-07-24T09:48:00;7.93;;;3.33;;
72611;SDS011;60655;52.182;4.474;2023-07-24T09:50:04;11.15;;;3.75;;
72611;SDS011;60655;52.182;4.474;2023-07-24T09:52:06;11.40;;;3.63;;
72611;SDS011;60655;52.182;4.474;2023-07-24T09:54:14;11.73;;;4.43;;
72611;SDS011;60655;52.182;4.474;2023-07-24T09:56:21;8.52;;;3.50;;
72611;SDS011;60655;52.182;4.474;2023-07-24T09:58:24;8.73;;;3.85;;
72611;SDS011;60655;52.182;4.474;2023-07-24T10:00:26;11.23;;;3.88;;
72611;SDS011;60655;52.182;4.474;2023-07-24T10:02:28;10.20;;;3.88;;
72611;SDS011;60655;52.182;4.474;2023-07-24T10:04:31;9.40;;;3.97;;
72611;SDS011;60655;52.182;4.474;2023-07-24T10:06:34;10.60;;;4.15;;
72611;SDS011;60655;52.182;4.474;2023-07-24T10:08:35;11.52;;;3.85;;
72611;SDS011;60655;52.182;4.474;2023-07-24T10:10:39;9.55;;;4.13;;
72611;SDS011;60655;52.182;4.474;2023-07-24T10:12:41;10.52;;;4.30;;
72611;SDS011;60655;52.182;4.474;2023-07-24T10:14:43;9.40;;;3.65;;
72611;SDS011;60655;52.182;4.474;2023-07-24T10:16:45;12.23;;;3.90;;
72611;SDS011;60655;52.182;4.474;2023-07-24T10:18:46;8.85;;;3.92;;
72611;SDS011;60655;52.182;4.474;2023-07-24T10:20:47;12.15;;;3.72;;
72611;SDS011;60655;52.182;4.474;2023-07-24T10:22:48;9.70;;;3.67;;
72611;SDS011;60655;52.182;4.474;2023-07-24T10:24:49;8.85;;;3.17;;
72611;SDS011;60655;52.182;4.474;2023-07-24T10:26:54;7.80;;;3.67;;
72611;SDS011;60655;52.182;4.474;2023-07-24T10:28:56;9.07;;;3.67;;
72611;SDS011;60655;52.182;4.474;2023-07-24T10:31:00;9.13;;;3.28;;
72611;SDS011;60655;52.182;4.474;2023-07-24T10:33:03;9.48;;;3.70;;
72611;SDS011;60655;52.182;4.474;2023-07-24T10:35:20;7.93;;;3.67;;
72611;SDS011;60655;52.182;4.474;2023-07-24T10:37:32;9.70;;;3.47;;
72611;SDS011;60655;52.182;4.474;2023-07-24T10:39:39;10.77;;;4.25;;
72611;SDS011;60655;52.182;4.474;2023-07-24T10:41:43;8.68;;;3.40;;
72611;SDS011;60655;52.182;4.474;2023-07-24T10:43:46;8.70;;;3.30;;
72611;SDS011;60655;52.182;4.474;2023-07-24T10:45:50;8.70;;;4.18;;
72611;SDS011;60655;52.182;4.474;2023-07-24T10:47:53;9.85;;;3.70;;
72611;SDS011;60655;52.182;4.474;2023-07-24T10:49:54;7.63;;;3.83;;
72611;SDS011;60655;52.182;4.474;2023-07-24T10:51:58;10.95;;;3.80;;
72611;SDS011;60655;52.182;4.474;2023-07-24T10:53:59;10.40;;;3.50;;
72611;SDS011;60655;52.182;4.474;2023-07-24T10:56:02;10.57;;;3.60;;
72611;SDS011;60655;52.182;4.474;2023-07-24T10:58:05;11.98;;;3.97;;
72611;SDS011;60655;52.182;4.474;2023-07-24T11:00:06;11.15;;;4.15;;
72611;SDS011;60655;52.182;4.474;2023-07-24T11:02:08;9.73;;;3.35;;
72611;SDS011;60655;52.182;4.474;2023-07-24T11:04:15;9.68;;;3.65;;
72611;SDS011;60655;52.182;4.474;2023-07-24T11:06:17;9.65;;;3.20;;
72611;SDS011;60655;52.182;4.474;2023-07-24T11:08:20;6.78;;;2.92;;
72611;SDS011;60655;52.182;4.474;2023-07-24T11:10:21;7.85;;;3.30;;
72611;SDS011;60655;52.182;4.474;2023-07-24T11:12:23;8.23;;;2.95;;
72611;SDS011;60655;52.182;4.474;2023-07-24T11:14:27;6.88;;;2.97;;
72611;SDS011;60655;52.182;4.474;2023-07-24T11:16:28;7.63;;;3.13;;
72611;SDS011;60655;52.182;4.474;2023-07-24T11:18:31;8.55;;;2.80;;
72611;SDS011;60655;52.182;4.474;2023-07-24T11:20:32;8.30;;;2.50;;
72611;SDS011;60655;52.182;4.474;2023-07-24T11:22:33;7.38;;;2.50;;
72611;SDS011;60655;52.182;4.474;2023-07-24T11:24:41;6.25;;;2.30;;
72611;SDS011;60655;52.182;4.474;2023-07-24T11:26:46;4.40;;;1.80;;
72611;SDS011;60655;52.182;4.474;2023-07-24T11:28:48;5.28;;;1.90;;
72611;SDS011;60655;52.182;4.474;2023-07-24T11:30:49;4.43;;;1.80;;
72611;SDS011;60655;52.182;4.474;2023-07-24T11:32:52;4.13;;;1.77;;
72611;SDS011;60655;52.182;4.474;2023-07-24T11:34:53;3.65;;;1.67;;
72611;SDS011;60655;52.182;4.474;2023-07-24T11:36:54;5.25;;;1.60;;
72611;SDS011;60655;52.182;4.474;2023-07-24T11:38:55;3.88;;;1.52;;
72611;SDS011;60655;52.182;4.474;2023-07-24T11:40:56;3.35;;;1.55;;
72611;SDS011;60655;52.182;4.474;2023-07-24T11:42:57;2.95;;;1.20;;
72611;SDS011;60655;52.182;4.474;2023-07-24T11:45:00;3.35;;;1.20;;
72611;SDS011;60655;52.182;4.474;2023-07-24T11:47:03;6.70;;;1.30;;
72611;SDS011;60655;52.182;4.474;2023-07-24T11:49:05;4.30;;;1.38;;
72611;SDS011;60655;52.182;4.474;2023-07-24T11:51:06;2.28;;;1.27;;
72611;SDS011;60655;52.182;4.474;2023-07-24T11:53:07;4.90;;;1.55;;
72611;SDS011;60655;52.182;4.474;2023-07-24T11:55:22;2.15;;;1.00;;
72611;SDS011;60655;52.182;4.474;2023-07-24T11:57:31;4.05;;;1.33;;
72611;SDS011;60655;52.182;4.474;2023-07-24T11:59:36;3.50;;;1.40;;
72611;SDS011;60655;52.182;4.474;2023-07-24T12:01:38;5.07;;;1.30;;
72611;SDS011;60655;52.182;4.474;2023-07-24T12:03:39;2.92;;;1.10;;
72611;SDS011;60655;52.182;4.474;2023-07-24T12:05:41;3.50;;;1.08;;
72611;SDS011;60655;52.182;4.474;2023-07-24T12:07:44;5.93;;;1.00;;